createdAt,value
2023-09-04T00:00:08.988Z,13.83
2023-09-04T00:01:18.420Z,13.76
2023-09-04T00:02:21.759Z,13.71
2023-09-04T00:03:23.640Z,13.63
2023-09-04T00:04:26.652Z,13.57
2023-09-04T00:05:28.525Z,13.52
2023-09-04T00:06:31.348Z,13.47
2023-09-04T00:07:33.242Z,13.40
2023-09-04T00:08:36.087Z,13.39
2023-09-04T00:09:38.878Z,13.38
2023-09-04T00:10:41.680Z,13.32
2023-09-04T00:11:44.883Z,13.30
2023-09-04T00:12:47.749Z,13.27
2023-09-04T00:13:49.610Z,13.25
2023-09-04T00:14:52.492Z,13.23
2023-09-04T00:15:57.431Z,13.21
2023-09-04T00:17:00.302Z,13.21
2023-09-04T00:18:02.268Z,13.21
2023-09-04T00:19:05.155Z,13.21
2023-09-04T00:20:07.690Z,13.20
2023-09-04T00:21:10.648Z,13.23
2023-09-04T00:22:13.576Z,13.27
2023-09-04T00:23:16.450Z,13.32
2023-09-04T00:24:20.683Z,13.34
2023-09-04T00:25:23.534Z,13.39
2023-09-04T00:26:25.366Z,13.40
2023-09-04T00:27:29.605Z,13.42
2023-09-04T00:28:31.537Z,13.46
2023-09-04T00:29:34.342Z,13.49
2023-09-04T00:30:36.262Z,13.53
2023-09-04T00:31:39.741Z,13.58
2023-09-04T00:32:42.137Z,13.60
2023-09-04T00:33:45.038Z,13.63
2023-09-04T00:34:47.451Z,13.66
2023-09-04T00:35:50.292Z,13.68
2023-09-04T00:36:52.207Z,13.70
2023-09-04T00:37:55.536Z,13.71
2023-09-04T00:38:57.408Z,13.70
2023-09-04T00:40:00.313Z,13.71
2023-09-04T00:41:02.203Z,13.71
2023-09-04T00:42:05.504Z,13.70
2023-09-04T00:43:08.903Z,13.69
2023-09-04T00:44:11.752Z,13.69
2023-09-04T00:45:13.680Z,13.68
2023-09-04T00:46:15.680Z,13.68
2023-09-04T00:47:18.838Z,13.65
2023-09-04T00:48:20.865Z,13.65
2023-09-04T00:49:24.055Z,13.64
2023-09-04T00:50:25.921Z,13.63
2023-09-04T00:51:28.792Z,13.58
2023-09-04T00:52:30.721Z,13.55
2023-09-04T00:53:34.053Z,13.50
2023-09-04T00:54:36.432Z,13.48
2023-09-04T00:55:40.066Z,13.45
2023-09-04T00:56:41.949Z,13.43
2023-09-04T00:57:45.180Z,13.38
2023-09-04T00:58:48.901Z,13.33
2023-09-04T00:59:52.299Z,13.29
2023-09-04T01:00:55.420Z,13.27
2023-09-04T01:02:01.076Z,13.23
2023-09-04T01:03:03.948Z,13.22
2023-09-04T01:04:06.958Z,13.21
2023-09-04T01:05:09.268Z,13.22
2023-09-04T01:06:12.100Z,13.22
2023-09-04T01:07:13.982Z,13.23
2023-09-04T01:08:17.727Z,13.24
2023-09-04T01:09:20.327Z,13.27
2023-09-04T01:10:23.874Z,13.29
2023-09-04T01:11:30.760Z,13.28
2023-09-04T01:12:38.495Z,13.29
2023-09-04T01:13:44.987Z,13.29
2023-09-04T01:14:49.369Z,13.31
2023-09-04T01:15:52.669Z,13.32
2023-09-04T01:16:55.769Z,13.32
2023-09-04T01:18:00.874Z,13.31
2023-09-04T01:19:03.839Z,13.31
2023-09-04T01:20:25.747Z,13.29
2023-09-04T01:21:28.748Z,13.26
2023-09-04T01:22:30.642Z,13.23
2023-09-04T01:23:34.224Z,13.21
2023-09-04T01:24:37.004Z,13.19
2023-09-04T01:25:43.435Z,13.14
2023-09-04T01:26:51.543Z,13.08
2023-09-04T01:27:58.817Z,13.04
2023-09-04T01:29:05.702Z,12.99
2023-09-04T01:30:12.490Z,12.94
2023-09-04T01:31:19.095Z,12.90
2023-09-04T01:32:27.914Z,12.86
2023-09-04T01:33:33.106Z,12.83
2023-09-04T01:34:39.563Z,12.81
2023-09-04T01:35:43.669Z,12.80
2023-09-04T01:36:46.798Z,12.78
2023-09-04T01:37:48.912Z,12.77
2023-09-04T01:38:51.752Z,12.76
2023-09-04T01:39:54.660Z,12.76
2023-09-04T01:40:57.530Z,12.74
2023-09-04T01:41:59.400Z,12.75
2023-09-04T01:43:02.244Z,12.75
2023-09-04T01:44:06.975Z,12.75
2023-09-04T01:45:10.642Z,12.74
2023-09-04T01:46:12.653Z,12.76
2023-09-04T01:47:15.503Z,12.76
2023-09-04T01:48:17.373Z,12.77
2023-09-04T01:49:20.196Z,12.75
2023-09-04T01:50:22.071Z,12.77
2023-09-04T01:51:25.277Z,12.77
2023-09-04T01:52:28.139Z,12.78
2023-09-04T01:53:30.061Z,12.76
2023-09-04T01:54:33.506Z,12.74
2023-09-04T01:55:35.369Z,12.74
2023-09-04T01:56:38.260Z,12.72
2023-09-04T01:57:40.204Z,12.73
2023-09-04T01:58:43.066Z,12.72
2023-09-04T01:59:44.990Z,12.70
2023-09-04T02:00:48.475Z,12.69
2023-09-04T02:01:50.422Z,12.67
2023-09-04T02:02:53.448Z,12.67
2023-09-04T02:03:56.275Z,12.66
2023-09-04T02:04:59.272Z,12.65
2023-09-04T02:06:01.182Z,12.67
2023-09-04T02:07:05.672Z,12.68
2023-09-04T02:08:09.276Z,12.68
2023-09-04T02:09:13.439Z,12.70
2023-09-04T02:10:15.579Z,12.73
2023-09-04T02:11:18.469Z,12.76
2023-09-04T02:12:20.346Z,12.78
2023-09-04T02:13:23.154Z,12.81
2023-09-04T02:14:25.325Z,12.83
2023-09-04T02:15:28.924Z,12.85
2023-09-04T02:17:54.702Z,12.89
2023-09-04T02:18:56.627Z,12.90
2023-09-04T02:20:01.334Z,12.92
2023-09-04T02:21:04.725Z,12.93
2023-09-04T02:22:08.997Z,12.95
2023-09-04T02:23:10.849Z,12.98
2023-09-04T02:24:14.678Z,12.99
2023-09-04T02:25:16.701Z,12.99
2023-09-04T02:26:19.533Z,12.99
2023-09-04T02:27:21.387Z,12.99
2023-09-04T02:28:24.487Z,13.00
2023-09-04T02:29:26.610Z,13.00
2023-09-04T02:30:30.241Z,13.01
2023-09-04T02:31:33.165Z,13.01
2023-09-04T02:32:35.424Z,13.01
2023-09-04T02:33:38.305Z,13.03
2023-09-04T02:34:41.476Z,13.02
2023-09-04T02:35:44.377Z,13.02
2023-09-04T02:36:46.234Z,13.02
2023-09-04T02:37:50.589Z,13.02
2023-09-04T02:38:52.439Z,13.01
2023-09-04T02:39:55.265Z,13.00
2023-09-04T02:40:57.223Z,13.01
2023-09-04T02:42:00.009Z,13.00
2023-09-04T02:43:02.035Z,13.01
2023-09-04T02:44:05.362Z,12.99
2023-09-04T02:45:08.994Z,12.97
2023-09-04T02:46:12.010Z,12.95
2023-09-04T02:47:16.003Z,12.96
2023-09-04T02:48:18.896Z,12.97
2023-09-04T02:49:20.742Z,12.97
2023-09-04T02:50:23.605Z,12.99
2023-09-04T02:51:25.481Z,13.01
2023-09-04T02:52:31.084Z,13.02
2023-09-04T02:53:34.400Z,13.03
2023-09-04T02:54:37.213Z,13.06
2023-09-04T02:55:39.053Z,13.06
2023-09-04T02:56:41.895Z,13.11
2023-09-04T02:57:43.723Z,13.12
2023-09-04T02:58:46.540Z,13.12
2023-09-04T02:59:48.673Z,13.13
2023-09-04T03:00:51.135Z,13.13
2023-09-04T03:01:53.985Z,13.14
2023-09-04T03:02:56.970Z,13.15
2023-09-04T03:03:59.841Z,13.14
2023-09-04T03:05:01.798Z,13.12
2023-09-04T03:06:08.346Z,13.11
2023-09-04T03:07:11.259Z,13.12
2023-09-04T03:08:13.265Z,13.13
2023-09-04T03:09:17.627Z,13.15
2023-09-04T03:10:19.521Z,13.15
2023-09-04T03:11:22.466Z,13.15
2023-09-04T03:12:24.949Z,13.16
2023-09-04T03:13:27.796Z,13.18
2023-09-04T03:14:30.060Z,13.19
2023-09-04T03:15:32.195Z,13.18
2023-09-04T03:16:35.134Z,13.17
2023-09-04T03:17:37.290Z,13.16
2023-09-04T03:18:40.203Z,13.17
2023-09-04T03:19:42.590Z,13.15
2023-09-04T03:20:45.398Z,13.14
2023-09-04T03:21:47.275Z,13.13
2023-09-04T03:22:50.318Z,13.13
2023-09-04T03:23:52.387Z,13.12
2023-09-04T03:24:56.678Z,13.11
2023-09-04T03:26:01.857Z,13.08
2023-09-04T03:27:05.292Z,13.05
2023-09-04T03:28:07.250Z,13.04
2023-09-04T03:29:10.299Z,13.02
2023-09-04T03:30:14.902Z,13.01
2023-09-04T03:31:18.833Z,13.00
2023-09-04T03:32:21.727Z,13.00
2023-09-04T03:33:25.086Z,12.98
2023-09-04T03:34:26.982Z,12.96
2023-09-04T03:35:29.830Z,12.92
2023-09-04T03:36:31.680Z,12.90
2023-09-04T03:37:36.925Z,12.89
2023-09-04T03:38:39.324Z,12.82
2023-09-04T03:39:42.229Z,12.82
2023-09-04T03:40:45.578Z,12.78
2023-09-04T03:41:48.379Z,12.72
2023-09-04T03:42:50.746Z,12.68
2023-09-04T03:43:54.352Z,12.65
2023-09-04T03:44:56.258Z,12.61
2023-09-04T03:45:59.221Z,12.56
2023-09-04T03:47:01.332Z,12.52
2023-09-04T03:48:04.771Z,12.49
2023-09-04T03:49:07.076Z,12.47
2023-09-04T03:50:11.542Z,12.44
2023-09-04T03:51:13.412Z,12.41
2023-09-04T03:52:16.239Z,12.37
2023-09-04T03:53:18.134Z,12.35
2023-09-04T03:54:21.005Z,12.33
2023-09-04T03:55:23.510Z,12.30
2023-09-04T03:56:28.008Z,12.29
2023-09-04T03:57:31.050Z,12.26
2023-09-04T03:58:32.933Z,12.25
2023-09-04T03:59:35.758Z,12.22
2023-09-04T04:00:37.610Z,12.19
2023-09-04T04:01:40.949Z,12.17
2023-09-04T04:02:43.128Z,12.16
2023-09-04T04:03:46.256Z,12.14
2023-09-04T04:04:48.190Z,12.13
2023-09-04T04:05:51.359Z,12.12
2023-09-04T04:06:53.226Z,12.11
2023-09-04T04:07:56.024Z,12.09
2023-09-04T04:08:57.960Z,12.04
2023-09-04T04:09:59.788Z,12.01
2023-09-04T04:11:02.580Z,12.00
2023-09-04T04:12:07.417Z,11.99
2023-09-04T04:13:10.208Z,11.96
2023-09-04T04:14:12.046Z,11.97
2023-09-04T04:15:14.977Z,11.95
2023-09-04T04:16:16.976Z,11.94
2023-09-04T04:17:19.845Z,11.93
2023-09-04T04:18:22.158Z,11.91
2023-09-04T04:19:25.276Z,11.88
2023-09-04T04:20:27.109Z,11.84
2023-09-04T04:21:30.061Z,11.81
2023-09-04T04:22:32.112Z,11.78
2023-09-04T04:23:36.600Z,11.76
2023-09-04T04:24:38.510Z,11.75
2023-09-04T04:25:41.748Z,11.75
2023-09-04T04:26:44.293Z,11.75
2023-09-04T04:27:48.538Z,11.74
2023-09-04T04:28:50.371Z,11.74
2023-09-04T04:29:56.305Z,11.75
2023-09-04T04:31:01.973Z,11.74
2023-09-04T04:32:08.164Z,11.75
2023-09-04T04:33:11.344Z,11.72
2023-09-04T04:34:14.272Z,11.72
2023-09-04T04:35:16.274Z,11.72
2023-09-04T04:36:19.259Z,11.73
2023-09-04T04:37:21.393Z,11.74
2023-09-04T04:38:24.848Z,11.74
2023-09-04T04:39:27.009Z,11.73
2023-09-04T04:40:29.903Z,11.74
2023-09-04T04:41:34.532Z,11.74
2023-09-04T04:42:39.539Z,11.75
2023-09-04T04:43:45.121Z,11.76
2023-09-04T04:44:48.635Z,11.76
2023-09-04T04:45:51.569Z,11.79
2023-09-04T04:46:54.525Z,11.81
2023-09-04T04:47:57.352Z,11.83
2023-09-04T04:49:00.389Z,11.85
2023-09-04T04:50:02.335Z,11.88
2023-09-04T04:51:05.659Z,11.89
2023-09-04T04:52:07.858Z,11.91
2023-09-04T04:53:12.218Z,11.93
2023-09-04T04:54:14.300Z,11.95
2023-09-04T04:55:17.182Z,11.98
2023-09-04T04:56:19.303Z,12.02
2023-09-04T04:57:22.126Z,12.04
2023-09-04T04:58:25.571Z,12.08
2023-09-04T04:59:30.066Z,12.12
2023-09-04T05:00:31.902Z,12.16
2023-09-04T05:01:35.402Z,12.19
2023-09-04T05:02:38.047Z,12.23
2023-09-04T05:03:40.916Z,12.26
2023-09-04T05:04:47.147Z,12.33
2023-09-04T05:05:52.187Z,12.39
2023-09-04T05:06:54.147Z,12.48
2023-09-04T05:07:57.054Z,12.56
2023-09-04T05:08:58.960Z,12.65
2023-09-04T05:10:00.856Z,12.69
2023-09-04T05:11:05.507Z,12.73
2023-09-04T05:12:10.460Z,12.75
2023-09-04T05:13:14.181Z,12.75
2023-09-04T05:14:16.130Z,12.77
2023-09-04T05:15:20.479Z,12.79
2023-09-04T05:16:23.176Z,12.81
2023-09-04T05:17:25.182Z,12.84
2023-09-04T05:18:28.189Z,12.88
2023-09-04T05:19:30.596Z,12.89
2023-09-04T05:20:33.689Z,12.92
2023-09-04T05:21:50.302Z,12.93
2023-09-04T05:23:01.513Z,12.93
2023-09-04T05:24:05.578Z,12.91
2023-09-04T05:25:10.318Z,12.91
2023-09-04T05:26:12.349Z,12.92
2023-09-04T05:27:15.347Z,12.95
2023-09-04T05:28:17.486Z,12.96
2023-09-04T05:29:20.636Z,12.97
2023-09-04T05:30:23.971Z,12.98
2023-09-04T05:31:27.118Z,13.00
2023-09-04T05:32:29.223Z,13.02
2023-09-04T05:33:32.408Z,13.02
2023-09-04T05:34:35.770Z,13.04
2023-09-04T05:35:38.784Z,13.06
2023-09-04T05:36:40.849Z,13.08
2023-09-04T05:37:44.243Z,13.11
2023-09-04T05:38:47.986Z,13.12
2023-09-04T05:39:51.065Z,13.15
2023-09-04T05:40:54.157Z,13.20
2023-09-04T05:41:57.090Z,13.24
2023-09-04T05:42:59.112Z,13.29
2023-09-04T05:44:02.131Z,13.33
2023-09-04T05:45:04.645Z,13.37
2023-09-04T05:46:09.115Z,13.41
2023-09-04T05:47:11.099Z,13.45
2023-09-04T05:48:14.060Z,13.50
2023-09-04T05:49:16.199Z,13.54
2023-09-04T05:50:19.586Z,13.57
2023-09-04T05:51:21.491Z,13.59
2023-09-04T05:52:24.613Z,13.62
2023-09-04T05:53:26.742Z,13.64
2023-09-04T05:54:29.917Z,13.67
2023-09-04T05:55:31.910Z,13.70
2023-09-04T05:56:34.964Z,13.76
2023-09-04T05:57:37.274Z,13.85
2023-09-04T05:58:45.549Z,13.96
2023-09-04T05:59:48.123Z,14.08
2023-09-04T06:00:51.209Z,14.19
2023-09-04T06:01:54.571Z,14.29
2023-09-04T06:02:57.650Z,14.38
2023-09-04T06:03:59.861Z,14.50
2023-09-04T06:05:02.950Z,14.60
2023-09-04T06:06:05.026Z,14.72
2023-09-04T06:07:12.007Z,14.84
2023-09-04T06:08:14.017Z,14.93
2023-09-04T06:09:17.012Z,14.99
2023-09-04T06:10:19.089Z,15.00
2023-09-04T06:11:21.327Z,15.04
2023-09-04T06:12:24.146Z,15.06
2023-09-04T06:13:26.000Z,15.09
2023-09-04T06:14:28.782Z,15.17
2023-09-04T06:15:30.648Z,15.27
2023-09-04T06:16:34.536Z,15.34
2023-09-04T06:17:38.720Z,15.41
2023-09-04T06:18:40.626Z,15.48
2023-09-04T06:19:43.460Z,15.52
2023-09-04T06:20:45.276Z,15.57
2023-09-04T06:21:48.119Z,15.65
2023-09-04T06:22:49.949Z,15.73
2023-09-04T06:23:52.795Z,15.81
2023-09-04T06:24:54.710Z,15.92
2023-09-04T06:25:57.514Z,16.01
2023-09-04T06:26:59.356Z,16.09
2023-09-04T06:28:04.269Z,16.14
2023-09-04T06:29:06.119Z,16.16
2023-09-04T06:30:09.668Z,16.18
2023-09-04T06:31:11.606Z,16.23
2023-09-04T06:32:15.921Z,16.27
2023-09-04T06:33:19.145Z,16.28
2023-09-04T06:34:22.185Z,16.32
2023-09-04T06:35:24.340Z,16.39
2023-09-04T06:36:27.125Z,16.42
2023-09-04T06:37:29.117Z,16.44
2023-09-04T06:38:31.915Z,16.45
2023-09-04T06:39:33.837Z,16.48
2023-09-04T06:40:39.033Z,16.53
2023-09-04T06:41:42.579Z,16.58
2023-09-04T06:42:45.622Z,16.64
2023-09-04T06:43:47.488Z,16.70
2023-09-04T06:44:50.590Z,16.74
2023-09-04T06:45:52.448Z,16.85
2023-09-04T06:46:55.296Z,16.94
2023-09-04T06:47:57.384Z,17.02
2023-09-04T06:49:01.541Z,17.14
2023-09-04T06:50:03.888Z,17.21
2023-09-04T06:51:06.734Z,17.28
2023-09-04T06:52:09.183Z,17.37
2023-09-04T06:53:13.512Z,17.46
2023-09-04T06:54:15.612Z,17.53
2023-09-04T06:55:18.451Z,17.62
2023-09-04T06:56:20.335Z,17.71
2023-09-04T06:57:23.135Z,17.85
2023-09-04T06:58:27.196Z,17.95
2023-09-04T06:59:30.094Z,18.04
2023-09-04T07:00:32.131Z,18.17
2023-09-04T07:01:35.361Z,18.27
2023-09-04T07:02:37.357Z,18.35
2023-09-04T07:03:39.193Z,18.41
2023-09-04T07:04:44.300Z,18.44
2023-09-04T07:05:46.253Z,18.46
2023-09-04T07:06:49.050Z,18.44
2023-09-04T07:07:50.937Z,18.41
2023-09-04T07:08:54.289Z,18.39
2023-09-04T07:09:56.095Z,18.37
2023-09-04T07:10:58.962Z,18.34
2023-09-04T07:12:00.859Z,18.33
2023-09-04T07:13:04.078Z,18.34
2023-09-04T07:14:05.889Z,18.35
2023-09-04T07:15:09.596Z,18.41
2023-09-04T07:16:19.795Z,18.49
2023-09-04T07:17:30.012Z,18.59
2023-09-04T07:18:31.953Z,18.69
2023-09-04T07:19:34.762Z,18.78
2023-09-04T07:20:38.083Z,18.86
2023-09-04T07:21:41.578Z,18.94
2023-09-04T07:22:43.558Z,18.95
2023-09-04T07:23:47.363Z,18.98
2023-09-04T07:24:49.373Z,19.05
2023-09-04T07:25:54.351Z,19.07
2023-09-04T07:26:57.218Z,19.17
2023-09-04T07:27:59.136Z,19.29
2023-09-04T07:29:01.961Z,19.47
2023-09-04T07:30:04.893Z,19.62
2023-09-04T07:31:17.557Z,19.78
2023-09-04T07:32:19.531Z,19.92
2023-09-04T07:33:22.745Z,19.97
2023-09-04T07:34:24.972Z,19.97
2023-09-04T07:35:28.597Z,19.99
2023-09-04T07:36:31.756Z,20.01
2023-09-04T07:37:33.723Z,19.99
2023-09-04T07:38:36.567Z,19.97
2023-09-04T07:39:38.860Z,19.92
2023-09-04T07:40:41.749Z,19.88
2023-09-04T07:41:43.592Z,19.86
2023-09-04T07:42:46.141Z,19.87
2023-09-04T07:43:50.278Z,19.86
2023-09-04T07:44:52.161Z,19.81
2023-09-04T07:45:56.083Z,19.72
2023-09-04T07:46:57.999Z,19.60
2023-09-04T07:48:00.855Z,19.53
2023-09-04T07:49:02.756Z,19.44
2023-09-04T07:50:06.467Z,19.35
2023-09-04T07:51:23.544Z,19.26
2023-09-04T07:52:34.001Z,19.19
2023-09-04T07:53:35.904Z,19.17
2023-09-04T07:54:38.732Z,19.16
2023-09-04T07:55:40.584Z,19.09
2023-09-04T07:56:43.938Z,18.99
2023-09-04T07:57:45.801Z,18.95
2023-09-04T07:58:48.636Z,18.90
2023-09-04T07:59:50.551Z,18.80
2023-09-04T08:00:54.040Z,18.75
2023-09-04T08:01:56.017Z,18.74
2023-09-04T08:02:59.095Z,18.78
2023-09-04T08:04:02.832Z,18.82
2023-09-04T08:05:06.316Z,18.78
2023-09-04T08:06:08.800Z,18.71
2023-09-04T08:07:11.674Z,18.70
2023-09-04T08:08:14.845Z,18.70
2023-09-04T08:09:18.191Z,18.70
2023-09-04T08:10:20.467Z,18.70
2023-09-04T08:11:23.332Z,18.68
2023-09-04T08:12:25.207Z,18.66
2023-09-04T08:13:28.090Z,18.69
2023-09-04T08:14:35.625Z,18.76
2023-09-04T08:15:38.799Z,18.83
2023-09-04T08:16:40.716Z,18.91
2023-09-04T08:17:46.983Z,18.98
2023-09-04T08:18:48.935Z,19.09
2023-09-04T08:19:51.828Z,19.15
2023-09-04T08:20:53.775Z,19.20
2023-09-04T08:21:58.443Z,19.21
2023-09-04T08:23:00.293Z,19.20
2023-09-04T08:24:04.606Z,19.23
2023-09-04T08:25:07.465Z,19.24
2023-09-04T08:26:10.953Z,19.30
2023-09-04T08:27:12.873Z,19.37
2023-09-04T08:28:15.744Z,19.45
2023-09-04T08:29:17.591Z,19.53
2023-09-04T08:30:20.936Z,19.66
2023-09-04T08:31:23.051Z,19.76
2023-09-04T08:32:26.096Z,19.83
2023-09-04T08:33:28.680Z,19.87
2023-09-04T08:34:33.184Z,19.95
2023-09-04T08:35:35.091Z,19.98
2023-09-04T08:36:37.958Z,19.99
2023-09-04T08:37:40.353Z,20.02
2023-09-04T08:38:42.740Z,20.04
2023-09-04T08:39:46.981Z,20.10
2023-09-04T08:40:49.015Z,20.08
2023-09-04T08:41:52.756Z,20.10
2023-09-04T08:42:55.900Z,20.13
2023-09-04T08:43:59.243Z,20.18
2023-09-04T08:45:02.013Z,20.23
2023-09-04T08:46:07.788Z,20.27
2023-09-04T08:47:11.118Z,20.25
2023-09-04T08:48:14.773Z,20.28
2023-09-04T08:49:17.738Z,20.34
2023-09-04T08:50:21.872Z,20.40
2023-09-04T08:51:24.680Z,20.46
2023-09-04T08:52:27.661Z,20.49
2023-09-04T08:53:29.661Z,20.52
2023-09-04T08:54:32.527Z,20.56
2023-09-04T08:55:35.738Z,20.61
2023-09-04T08:56:39.361Z,20.62
2023-09-04T08:57:43.587Z,20.64
2023-09-04T08:58:46.822Z,20.68
2023-09-04T08:59:48.784Z,20.68
2023-09-04T09:00:52.538Z,20.70
2023-09-04T09:01:56.752Z,20.69
2023-09-04T09:03:02.924Z,20.66
2023-09-04T09:04:06.244Z,20.62
2023-09-04T09:05:09.898Z,20.51
2023-09-04T09:06:11.934Z,20.49
2023-09-04T09:07:15.778Z,20.50
2023-09-04T09:08:17.654Z,20.46
2023-09-04T09:09:23.152Z,20.53
2023-09-04T09:10:25.156Z,20.81
2023-09-04T09:11:29.530Z,21.16
2023-09-04T09:12:37.301Z,21.52
2023-09-04T09:13:41.374Z,21.88
2023-09-04T09:14:43.210Z,22.18
2023-09-04T09:15:46.134Z,22.45
2023-09-04T09:16:48.091Z,22.73
2023-09-04T09:17:51.641Z,23.02
2023-09-04T09:18:56.155Z,23.27
2023-09-04T09:19:58.073Z,23.52
2023-09-04T09:20:59.921Z,23.75
2023-09-04T09:22:13.283Z,24.03
2023-09-04T09:23:15.959Z,24.28
2023-09-04T09:24:20.344Z,24.56
2023-09-04T09:25:22.965Z,24.81
2023-09-04T09:26:25.791Z,25.10
2023-09-04T09:27:31.339Z,25.35
2023-09-04T09:28:33.750Z,25.57
2023-09-04T09:29:37.696Z,25.88
2023-09-04T09:30:40.287Z,26.17
2023-09-04T09:31:47.216Z,26.42
2023-09-04T09:32:52.021Z,26.70
2023-09-04T09:33:54.952Z,26.69
2023-09-04T09:34:59.006Z,26.48
2023-09-04T09:36:01.780Z,26.15
2023-09-04T09:37:03.982Z,25.94
2023-09-04T09:38:07.279Z,25.75
2023-09-04T09:39:10.375Z,25.48
2023-09-04T09:40:15.529Z,25.27
2023-09-04T09:41:17.405Z,25.04
2023-09-04T09:42:32.037Z,24.83
2023-09-04T09:43:34.024Z,24.71
2023-09-04T09:44:39.146Z,24.77
2023-09-04T09:45:42.522Z,24.97
2023-09-04T09:46:45.506Z,25.20
2023-09-04T09:47:48.152Z,25.44
2023-09-04T09:48:50.003Z,25.77
2023-09-04T09:49:52.877Z,25.92
2023-09-04T09:50:58.669Z,26.11
2023-09-04T09:52:01.468Z,26.34
2023-09-04T09:53:04.275Z,26.56
2023-09-04T09:54:07.833Z,26.65
2023-09-04T09:55:24.665Z,26.93
2023-09-04T09:56:27.531Z,26.96
2023-09-04T09:57:30.886Z,26.91
2023-09-04T09:58:33.878Z,26.73
2023-09-04T09:59:36.503Z,26.50
2023-09-04T10:00:40.072Z,26.11
2023-09-04T10:01:42.113Z,25.77
2023-09-04T10:02:45.220Z,25.41
2023-09-04T10:03:48.671Z,25.09
2023-09-04T10:04:51.837Z,24.84
2023-09-04T10:05:56.068Z,24.59
2023-09-04T10:07:02.002Z,24.44
2023-09-04T10:08:04.793Z,24.32
2023-09-04T10:09:22.430Z,24.23
2023-09-04T10:10:24.991Z,24.24
2023-09-04T10:11:28.230Z,24.29
2023-09-04T10:12:35.109Z,24.32
2023-09-04T10:13:40.492Z,24.31
2023-09-04T10:14:43.680Z,24.36
2023-09-04T10:15:48.377Z,24.42
2023-09-04T10:16:53.394Z,24.46
2023-09-04T10:18:00.883Z,24.59
2023-09-04T10:19:03.719Z,24.70
2023-09-04T10:20:07.838Z,24.80
2023-09-04T10:21:14.511Z,24.94
2023-09-04T10:22:25.396Z,25.14
2023-09-04T10:23:34.124Z,25.32
2023-09-04T10:24:45.676Z,25.35
2023-09-04T10:25:52.803Z,25.30
2023-09-04T10:27:00.672Z,25.23
2023-09-04T10:28:06.171Z,25.27
2023-09-04T10:29:12.992Z,25.31
2023-09-04T10:30:18.710Z,25.35
2023-09-04T10:31:21.874Z,25.32
2023-09-04T10:32:24.027Z,25.21
2023-09-04T10:33:27.088Z,25.07
2023-09-04T10:34:29.199Z,24.88
2023-09-04T10:35:34.126Z,24.68
2023-09-04T10:36:38.310Z,24.52
2023-09-04T10:37:41.565Z,24.41
2023-09-04T10:38:45.301Z,24.30
2023-09-04T10:39:51.959Z,24.28
2023-09-04T10:40:57.375Z,24.35
2023-09-04T10:42:00.358Z,24.37
2023-09-04T10:43:05.015Z,24.43
2023-09-04T10:44:09.990Z,24.57
2023-09-04T10:45:12.881Z,24.71
2023-09-04T10:46:17.098Z,24.90
2023-09-04T10:47:19.618Z,25.09
2023-09-04T10:48:42.061Z,25.18
2023-09-04T10:49:44.368Z,25.33
2023-09-04T10:50:47.138Z,25.35
2023-09-04T10:51:48.964Z,25.27
2023-09-04T10:52:51.830Z,25.21
2023-09-04T10:53:54.073Z,25.16
2023-09-04T10:55:13.380Z,25.12
2023-09-04T10:56:15.315Z,25.08
2023-09-04T10:57:18.104Z,25.00
2023-09-04T10:58:21.279Z,24.76
2023-09-04T10:59:24.236Z,24.49
2023-09-04T11:00:27.757Z,24.30
2023-09-04T11:01:35.993Z,24.10
2023-09-04T11:02:40.157Z,23.88
2023-09-04T11:03:45.583Z,23.71
2023-09-04T11:04:47.880Z,23.52
2023-09-04T11:06:21.627Z,23.27
2023-09-04T11:07:28.165Z,23.06
2023-09-04T11:08:31.904Z,22.93
2023-09-04T11:09:33.746Z,23.04
2023-09-04T11:10:39.571Z,23.32
2023-09-04T11:11:41.553Z,23.63
2023-09-04T11:12:45.773Z,23.99
2023-09-04T11:13:56.186Z,24.39
2023-09-04T11:14:59.039Z,24.74
2023-09-04T11:16:04.688Z,24.96
2023-09-04T11:17:09.334Z,25.12
2023-09-04T11:18:15.840Z,25.38
2023-09-04T11:19:19.498Z,25.60
2023-09-04T11:20:25.632Z,25.72
2023-09-04T11:21:31.929Z,25.87
2023-09-04T11:22:35.624Z,25.92
2023-09-04T11:23:37.505Z,26.08
2023-09-04T11:24:41.285Z,25.94
2023-09-04T11:25:47.502Z,25.72
2023-09-04T11:26:50.372Z,25.42
2023-09-04T11:27:52.638Z,25.15
2023-09-04T11:28:58.650Z,24.91
2023-09-04T11:30:12.905Z,24.62
2023-09-04T11:31:15.821Z,24.36
2023-09-04T11:32:18.266Z,24.16
2023-09-04T11:33:21.731Z,24.06
2023-09-04T11:34:23.892Z,24.15
2023-09-04T11:35:27.476Z,24.42
2023-09-04T11:36:29.336Z,24.73
2023-09-04T11:37:32.993Z,25.05
2023-09-04T11:38:37.100Z,25.42
2023-09-04T11:39:55.007Z,25.73
2023-09-04T11:40:59.812Z,25.93
2023-09-04T11:42:03.098Z,26.07
2023-09-04T11:43:04.939Z,26.25
2023-09-04T11:44:09.713Z,26.45
2023-09-04T11:45:11.584Z,26.65
2023-09-04T11:46:14.584Z,26.84
2023-09-04T11:47:17.005Z,27.06
2023-09-04T11:48:19.852Z,27.32
2023-09-04T11:49:22.038Z,27.58
2023-09-04T11:50:24.945Z,27.74
2023-09-04T11:51:26.762Z,27.89
2023-09-04T11:52:29.999Z,27.94
2023-09-04T11:53:32.378Z,27.93
2023-09-04T11:54:37.402Z,28.00
2023-09-04T11:55:39.361Z,28.04
2023-09-04T11:56:42.617Z,28.02
2023-09-04T11:57:44.536Z,28.00
2023-09-04T11:58:46.357Z,27.96
2023-09-04T11:59:50.628Z,27.73
2023-09-04T12:02:05.338Z,26.98
2023-09-04T12:03:19.470Z,26.59
2023-09-04T12:04:22.493Z,26.52
2023-09-04T12:05:24.526Z,26.55
2023-09-04T12:06:29.877Z,26.46
2023-09-04T12:07:31.961Z,26.32
2023-09-04T12:08:35.072Z,26.19
2023-09-04T12:09:37.450Z,26.33
2023-09-04T12:10:40.358Z,26.46
2023-09-04T12:11:42.507Z,26.61
2023-09-04T12:12:45.669Z,26.74
2023-09-04T12:13:48.027Z,27.01
2023-09-04T12:14:52.373Z,27.33
2023-09-04T12:16:05.383Z,27.67
2023-09-04T12:17:11.684Z,27.94
2023-09-04T12:18:13.802Z,28.13
2023-09-04T12:19:18.017Z,28.28
2023-09-04T12:20:19.943Z,28.42
2023-09-04T12:21:26.184Z,28.56
2023-09-04T12:22:28.105Z,28.66
2023-09-04T12:23:46.406Z,28.79
2023-09-04T12:25:02.202Z,29.07
2023-09-04T12:26:05.206Z,29.19
2023-09-04T12:27:07.588Z,29.28
2023-09-04T12:28:11.800Z,29.24
2023-09-04T12:29:13.754Z,29.21
2023-09-04T12:30:17.958Z,29.23
2023-09-04T12:31:22.158Z,29.12
2023-09-04T12:32:26.176Z,29.07
2023-09-04T12:33:29.248Z,28.91
2023-09-04T12:34:33.104Z,28.73
2023-09-04T12:35:37.696Z,28.62
2023-09-04T12:36:41.218Z,28.38
2023-09-04T12:37:43.077Z,28.15
2023-09-04T12:38:46.931Z,28.09
2023-09-04T12:39:49.962Z,28.16
2023-09-04T12:40:51.781Z,28.23
2023-09-04T12:41:57.016Z,28.37
2023-09-04T12:42:58.879Z,28.46
2023-09-04T12:44:02.063Z,28.60
2023-09-04T12:45:05.877Z,28.68
2023-09-04T12:46:10.085Z,28.78
2023-09-04T12:47:12.082Z,28.78
2023-09-04T12:48:15.914Z,28.57
2023-09-04T12:49:18.119Z,28.33
2023-09-04T12:50:20.980Z,28.08
2023-09-04T12:51:25.014Z,27.79
2023-09-04T12:52:27.845Z,27.45
2023-09-04T12:53:29.701Z,27.11
2023-09-04T12:54:32.551Z,26.75
2023-09-04T12:55:34.422Z,26.41
2023-09-04T12:56:37.243Z,26.09
2023-09-04T12:57:39.135Z,25.80
2023-09-04T12:58:41.952Z,25.74
2023-09-04T12:59:43.866Z,25.83
2023-09-04T13:00:46.819Z,26.07
2023-09-04T13:01:50.117Z,26.31
2023-09-04T13:02:53.149Z,26.60
2023-09-04T13:03:55.109Z,26.81
2023-09-04T13:04:57.939Z,27.03
2023-09-04T13:05:59.837Z,27.23
2023-09-04T13:07:03.002Z,27.45
2023-09-04T13:08:05.852Z,27.74
2023-09-04T13:09:08.678Z,27.90
2023-09-04T13:10:11.111Z,28.13
2023-09-04T13:11:15.025Z,28.25
2023-09-04T13:12:17.017Z,28.41
2023-09-04T13:13:32.173Z,28.66
2023-09-04T13:14:34.318Z,28.86
2023-09-04T13:15:37.189Z,29.04
2023-09-04T13:16:39.862Z,29.08
2023-09-04T13:17:44.732Z,29.10
2023-09-04T13:18:46.792Z,29.17
2023-09-04T13:19:49.752Z,29.25
2023-09-04T13:20:51.681Z,29.35
2023-09-04T13:22:04.158Z,29.42
2023-09-04T13:23:06.247Z,29.43
2023-09-04T13:24:09.267Z,29.40
2023-09-04T13:25:11.135Z,29.38
2023-09-04T13:26:14.102Z,29.25
2023-09-04T13:27:16.047Z,29.15
2023-09-04T13:28:18.877Z,29.11
2023-09-04T13:29:21.753Z,28.94
2023-09-04T13:30:24.555Z,28.74
2023-09-04T13:31:26.543Z,28.57
2023-09-04T13:32:29.483Z,28.41
2023-09-04T13:33:34.495Z,28.31
2023-09-04T13:34:37.325Z,28.30
2023-09-04T13:35:39.231Z,28.36
2023-09-04T13:36:42.351Z,28.43
2023-09-04T13:37:44.358Z,28.56
2023-09-04T13:38:47.224Z,28.60
2023-09-04T13:39:49.189Z,28.61
2023-09-04T13:40:51.996Z,28.73